Crane Lake, MN (55725)

5:27 PM CST on January 23, 2017 (GMT -0600)
Crane Lake | | Change Station

Elev 1119 ft 48.27 °N, 92.48 °W | Updated 20 minutes ago

Overcast
Overcast
32 °F
Feels Like 32 °F
N
0
Wind Variable Wind from North

Today
High -- | Low -- °F
--% Chance of Precip.
Yesterday
High -- | Low -- °F
Precip. -- in
Pressure 29.80 in
Visibility 10.0 miles
Clouds Mostly Cloudy 1600 ft
Overcast 2100 ft
Dew Point 30 °F
Humidity 93%
Rainfall 0.00 in
Snow Depth Not available.
7:48 AM 4:55 PM
Waning Crescent, 15% visible
METAR KCDD 232307Z AUTO 00000KT 10SM BKN016 OVC021 00/M01 A2980 RMK AO2
Pressure 29.80 in
Visibility 10.0 miles
Clouds Mostly Cloudy 1600 ft
Overcast 2100 ft
Dew Point 30 °F
Humidity 93%
Rainfall 0.00 in
Snow Depth Not available.
7:48 AM 4:55 PM
Waning Crescent, 15% visible
METAR KCDD 232307Z AUTO 00000KT 10SM BKN016 OVC021 00/M01 A2980 RMK AO2

Get Your Daily Forecast Email!

Thanks for signing up!

Be on the lookout for a verification email in your inbox.

You'll start receiving the daily forecast at 8 AM.

×

10-Day Weather Forecast

Almanac

Astronomy

Jan. 23, 2017 Rise Set
Actual Time
Civil Twilight
Nautical Twilight
Astronomical Twilight
Moon
Length of Visible Light
Length of Day
Tomorrow will be .
, % of the Moon is Illuminated

Today's Extremes

State Highs State Lows

Community

WunderPhotos

Upload Photos

1,962,540 photos uploaded!

WunderBlog® & News

Nearby

Air Quality

  Air Quality AQ Index Pollutant
Not available.

Snow Depth

Station Depth Elevation

Earthquake Activity

City Distance Mag. Time & Date
Minimum magnitude displayed is 2.5.

Coastal Water Temperatures

Place Temperature

Stations

Nearby Weather Stations

Station Location Temp. Windchill Dew Point Humidity Wind Precip. Elev Updated Type
                   

Watches & Warnings

There are currently no watches in effect.